createdAt,value
2019-03-12T00:00:34.000Z,26.8
2019-03-12T00:01:34.000Z,26.8
2019-03-12T00:03:19.000Z,26.8
2019-03-12T00:04:34.000Z,26.8
2019-03-12T00:06:34.000Z,26.8
2019-03-12T00:08:34.000Z,26.8
2019-03-12T00:09:34.000Z,26.8
2019-03-12T00:10:34.000Z,26.8
2019-03-12T00:12:34.000Z,26.9
2019-03-12T00:13:34.000Z,26.9
2019-03-12T00:15:19.000Z,26.9
2019-03-12T00:16:34.000Z,26.9
2019-03-12T00:17:34.000Z,26.9
2019-03-12T00:18:34.000Z,27
2019-03-12T00:20:34.000Z,27
2019-03-12T00:21:34.000Z,26.9
2019-03-12T00:23:34.000Z,26.9
2019-03-12T00:25:34.000Z,26.8
2019-03-12T00:26:34.000Z,26.8
2019-03-12T00:28:34.000Z,26.8
2019-03-12T00:29:34.000Z,26.8
2019-03-12T00:31:34.000Z,26.9
2019-03-12T00:33:34.000Z,26.8
2019-03-12T00:35:34.000Z,26.7
2019-03-12T00:37:34.000Z,26.7
2019-03-12T00:39:34.000Z,26.6
2019-03-12T00:41:19.000Z,26.6
2019-03-12T00:42:34.000Z,26.5
2019-03-12T00:44:34.000Z,26.5
2019-03-12T00:46:34.000Z,26.5
2019-03-12T00:47:34.000Z,26.5
2019-03-12T00:48:34.000Z,26.6
2019-03-12T00:49:34.000Z,26.6
2019-03-12T00:50:34.000Z,26.7
2019-03-12T00:51:34.000Z,26.8
2019-03-12T00:52:34.000Z,26.9
2019-03-12T00:54:34.000Z,26.8
2019-03-12T00:55:34.000Z,26.8
2019-03-12T00:57:19.000Z,26.9
2019-03-12T00:58:34.000Z,26.8
2019-03-12T00:59:34.000Z,26.8
2019-03-12T01:00:34.000Z,26.9
2019-03-12T01:02:34.000Z,26.9
2019-03-12T01:03:34.000Z,27
2019-03-12T01:04:34.000Z,27
2019-03-12T01:06:34.000Z,26.8
2019-03-12T01:08:34.000Z,26.7
2019-03-12T01:10:19.000Z,26.7
2019-03-12T01:11:34.000Z,26.7
2019-03-12T01:13:34.000Z,26.7
2019-03-12T01:14:34.000Z,26.7
2019-03-12T01:16:34.000Z,26.7
2019-03-12T01:17:34.000Z,26.8
2019-03-12T01:19:34.000Z,26.8
2019-03-12T01:21:19.000Z,26.8
2019-03-12T01:22:34.000Z,26.8
2019-03-12T01:24:34.000Z,26.7
2019-03-12T01:25:34.000Z,26.7
2019-03-12T01:26:34.000Z,26.7
2019-03-12T01:28:34.000Z,26.7
2019-03-12T01:30:34.000Z,26.6
2019-03-12T01:32:34.000Z,26.6
2019-03-12T01:33:34.000Z,26.6
2019-03-12T01:35:34.000Z,26.6
2019-03-12T01:36:34.000Z,26.7
2019-03-12T01:38:19.000Z,26.7
2019-03-12T01:39:34.000Z,26.7
2019-03-12T01:40:34.000Z,26.7
2019-03-12T01:42:19.000Z,26.8
2019-03-12T01:43:34.000Z,26.7
2019-03-12T01:45:34.000Z,26.7
2019-03-12T01:47:34.000Z,26.6
2019-03-12T01:48:34.000Z,26.6
2019-03-12T01:49:34.000Z,26.7
2019-03-12T01:51:34.000Z,26.7
2019-03-12T01:53:34.000Z,26.7
2019-03-12T01:54:34.000Z,26.7
2019-03-12T01:56:34.000Z,26.7
2019-03-12T01:58:34.000Z,26.6
2019-03-12T02:00:34.000Z,26.6
2019-03-12T02:02:34.000Z,26.6
2019-03-12T02:04:34.000Z,26.6
2019-03-12T02:05:34.000Z,26.6
2019-03-12T02:07:34.000Z,26.7
2019-03-12T02:09:34.000Z,26.7
2019-03-12T02:10:34.000Z,26.7
2019-03-12T02:12:34.000Z,26.7
2019-03-12T02:14:34.000Z,26.6
2019-03-12T02:16:34.000Z,26.6
2019-03-12T02:17:34.000Z,26.6
2019-03-12T02:18:34.000Z,26.7
2019-03-12T02:19:34.000Z,26.7
2019-03-12T02:21:34.000Z,26.8
2019-03-12T02:22:34.000Z,26.7
2019-03-12T02:24:35.000Z,26.7
2019-03-12T02:26:35.000Z,26.6
2019-03-12T02:28:19.000Z,26.5
2019-03-12T02:29:35.000Z,26.5
2019-03-12T02:30:35.000Z,26.5
2019-03-12T02:32:35.000Z,26.6
2019-03-12T02:34:35.000Z,26.5
2019-03-12T02:36:35.000Z,26.5
2019-03-12T02:38:35.000Z,26.5
2019-03-12T02:39:35.000Z,26.5
2019-03-12T02:41:35.000Z,26.6
2019-03-12T02:43:35.000Z,26.5
2019-03-12T02:44:35.000Z,26.5
2019-03-12T02:46:35.000Z,26.6
2019-03-12T02:48:19.000Z,26.6
2019-03-12T02:49:35.000Z,26.6
2019-03-12T02:50:35.000Z,26.6
2019-03-12T02:52:35.000Z,26.6
2019-03-12T02:54:35.000Z,26.6
2019-03-12T02:55:35.000Z,26.5
2019-03-12T02:57:35.000Z,26.5
2019-03-12T02:58:35.000Z,26.5
2019-03-12T03:00:35.000Z,26.5
2019-03-12T03:02:35.000Z,26.5
2019-03-12T03:03:35.000Z,26.5
2019-03-12T03:05:35.000Z,26.5
2019-03-12T03:06:35.000Z,26.6
2019-03-12T03:07:35.000Z,26.6
2019-03-12T03:09:35.000Z,26.6
2019-03-12T03:10:35.000Z,26.6
2019-03-12T03:12:35.000Z,26.5
2019-03-12T03:13:35.000Z,26.5
2019-03-12T03:15:35.000Z,26.5
2019-03-12T03:17:35.000Z,26.4
2019-03-12T03:19:35.000Z,26.3
2019-03-12T03:21:35.000Z,26.3
2019-03-12T03:23:35.000Z,26.3
2019-03-12T03:24:35.000Z,26.3
2019-03-12T03:25:35.000Z,26.4
2019-03-12T03:26:35.000Z,26.5
2019-03-12T03:28:34.000Z,26.6
2019-03-12T03:29:34.000Z,26.6
2019-03-12T03:31:34.000Z,26.6
2019-03-12T03:33:34.000Z,26.6
2019-03-12T03:35:34.000Z,26.5
2019-03-12T03:36:34.000Z,26.4
2019-03-12T03:37:34.000Z,26.4
2019-03-12T03:38:34.000Z,26.5
2019-03-12T03:40:19.000Z,26.5
2019-03-12T03:42:34.000Z,26.4
2019-03-12T03:43:34.000Z,26.4
2019-03-12T03:45:34.000Z,26.4
2019-03-12T03:47:34.000Z,26.4
2019-03-12T03:49:34.000Z,26.3
2019-03-12T03:50:34.000Z,26.4
2019-03-12T03:52:34.000Z,26.4
2019-03-12T03:53:34.000Z,26.5
2019-03-12T03:55:19.000Z,26.5
2019-03-12T03:57:34.000Z,26.3
2019-03-12T03:58:34.000Z,26.3
2019-03-12T04:00:19.000Z,26.2
2019-03-12T04:01:34.000Z,26.2
2019-03-12T04:03:34.000Z,26.2
2019-03-12T04:05:34.000Z,26.2
2019-03-12T04:07:19.000Z,26.2
2019-03-12T04:08:34.000Z,26.2
2019-03-12T04:09:34.000Z,26.2
2019-03-12T04:11:19.000Z,26.2
2019-03-12T04:12:34.000Z,26.2
2019-03-12T04:14:34.000Z,26.2
2019-03-12T04:16:34.000Z,26.2
2019-03-12T04:17:34.000Z,26.2
2019-03-12T04:19:34.000Z,26.2
2019-03-12T04:20:34.000Z,26.3
2019-03-12T04:22:34.000Z,26.4
2019-03-12T04:23:34.000Z,26.4
2019-03-12T04:25:34.000Z,26.5
2019-03-12T04:27:34.000Z,26.4
2019-03-12T04:28:34.000Z,26.4
2019-03-12T04:30:34.000Z,26.4
2019-03-12T04:32:34.000Z,26.4
2019-03-12T04:34:34.000Z,26.4
2019-03-12T04:36:34.000Z,26.4
2019-03-12T04:38:34.000Z,26.4
2019-03-12T04:39:34.000Z,26.4
2019-03-12T04:40:34.000Z,26.4
2019-03-12T04:42:34.000Z,26.5
2019-03-12T04:44:34.000Z,26.4
2019-03-12T04:46:34.000Z,26.4
2019-03-12T04:48:34.000Z,26.4
2019-03-12T04:50:34.000Z,26.4
2019-03-12T04:51:34.000Z,26.4
2019-03-12T04:53:19.000Z,26.5
2019-03-12T04:54:34.000Z,26.4
2019-03-12T04:55:34.000Z,26.4
2019-03-12T04:56:34.000Z,26.4
2019-03-12T04:58:34.000Z,26.5
2019-03-12T04:59:34.000Z,26.5
2019-03-12T05:00:34.000Z,26.6
2019-03-12T05:02:34.000Z,26.6
2019-03-12T05:03:34.000Z,26.6
2019-03-12T05:04:34.000Z,26.6
2019-03-12T05:05:34.000Z,26.7
2019-03-12T05:07:34.000Z,26.7
2019-03-12T05:09:34.000Z,26.6
2019-03-12T05:11:34.000Z,26.5
2019-03-12T05:13:34.000Z,26.4
2019-03-12T05:15:34.000Z,26.4
2019-03-12T05:17:19.000Z,26.4
2019-03-12T05:18:34.000Z,26.3
2019-03-12T05:19:34.000Z,26.4
2019-03-12T05:20:34.000Z,26.4
2019-03-12T05:22:34.000Z,26.5
2019-03-12T05:23:34.000Z,26.5
2019-03-12T05:25:34.000Z,26.5
2019-03-12T05:26:34.000Z,26.5
2019-03-12T05:28:34.000Z,26.5
2019-03-12T05:29:34.000Z,26.4
2019-03-12T05:30:34.000Z,26.4
2019-03-12T05:32:34.000Z,26.4
2019-03-12T05:33:34.000Z,26.4
2019-03-12T05:35:34.000Z,26.4
2019-03-12T05:36:34.000Z,26.4
2019-03-12T05:38:34.000Z,26.4
2019-03-12T05:40:34.000Z,26.4
2019-03-12T05:41:34.000Z,26.4
2019-03-12T05:42:34.000Z,26.5
2019-03-12T05:44:19.000Z,26.5
2019-03-12T05:45:34.000Z,26.5
2019-03-12T05:47:34.000Z,26.5
2019-03-12T05:49:34.000Z,26.5
2019-03-12T05:51:34.000Z,26.4
2019-03-12T05:52:34.000Z,26.4
2019-03-12T05:54:34.000Z,26.4
2019-03-12T05:56:34.000Z,26.4
2019-03-12T05:57:34.000Z,26.4
2019-03-12T05:59:34.000Z,26.5
2019-03-12T06:00:34.000Z,26.5
2019-03-12T06:02:34.000Z,26.6
2019-03-12T06:03:34.000Z,26.6
2019-03-12T06:05:34.000Z,26.7
2019-03-12T06:06:34.000Z,26.7
2019-03-12T06:08:34.000Z,26.8
2019-03-12T06:10:19.000Z,26.8
2019-03-12T06:11:34.000Z,26.8
2019-03-12T06:12:34.000Z,26.8
2019-03-12T06:14:19.000Z,26.9
2019-03-12T06:15:34.000Z,27
2019-03-12T06:17:34.000Z,26.9
2019-03-12T06:19:34.000Z,26.9
2019-03-12T06:20:34.000Z,27
2019-03-12T06:22:34.000Z,27
2019-03-12T06:23:34.000Z,27.1
2019-03-12T06:24:34.000Z,27.1
2019-03-12T06:26:34.000Z,27.2
2019-03-12T06:28:34.000Z,27.2
2019-03-12T06:29:34.000Z,27.3
2019-03-12T06:31:34.000Z,27.3
2019-03-12T06:33:19.000Z,27.3
2019-03-12T06:34:34.000Z,27.2
2019-03-12T06:35:34.000Z,27.1
2019-03-12T06:36:34.000Z,27.2
2019-03-12T06:37:34.000Z,27.2
2019-03-12T06:39:35.000Z,27.3
2019-03-12T06:41:35.000Z,27.4
2019-03-12T06:42:35.000Z,27.4
2019-03-12T06:44:35.000Z,27.5
2019-03-12T06:45:35.000Z,27.5
2019-03-12T06:47:35.000Z,27.6
2019-03-12T06:48:35.000Z,27.6
2019-03-12T06:50:35.000Z,27.7
2019-03-12T06:51:35.000Z,27.7
2019-03-12T06:53:35.000Z,27.8
2019-03-12T06:54:35.000Z,27.8
2019-03-12T06:55:35.000Z,27.8
2019-03-12T06:56:35.000Z,27.9
2019-03-12T06:58:35.000Z,27.9
2019-03-12T06:59:35.000Z,27.9
2019-03-12T07:01:35.000Z,27.9
2019-03-12T07:02:35.000Z,27.9
2019-03-12T07:04:35.000Z,27.9
2019-03-12T07:05:35.000Z,28
2019-03-12T07:07:19.000Z,28
2019-03-12T07:08:35.000Z,27.9
2019-03-12T07:10:35.000Z,27.9
2019-03-12T07:11:35.000Z,28
2019-03-12T07:12:35.000Z,28
2019-03-12T07:14:20.000Z,28
2019-03-12T07:15:35.000Z,27.9
2019-03-12T07:16:35.000Z,27.9
2019-03-12T07:18:19.000Z,27.9
2019-03-12T07:19:20.000Z,27.9
2019-03-12T07:20:35.000Z,27.9
2019-03-12T07:22:35.000Z,27.9
2019-03-12T07:23:35.000Z,27.9
2019-03-12T07:25:35.000Z,28
2019-03-12T07:27:35.000Z,28
2019-03-12T07:29:35.000Z,28
2019-03-12T07:31:20.000Z,28.1
2019-03-12T07:32:35.000Z,28
2019-03-12T07:34:35.000Z,27.9
2019-03-12T07:36:35.000Z,27.7
2019-03-12T07:37:35.000Z,27.7
2019-03-12T07:39:35.000Z,27.8
2019-03-12T07:41:31.000Z,27.8
2019-03-12T07:42:35.000Z,27.7
2019-03-12T07:43:35.000Z,27.7
2019-03-12T07:44:35.000Z,27.8
2019-03-12T07:45:35.000Z,27.9
2019-03-12T07:46:35.000Z,28
2019-03-12T07:48:35.000Z,28.1
2019-03-12T07:49:35.000Z,28.1
2019-03-12T07:51:35.000Z,28.1
2019-03-12T07:52:35.000Z,28.1
2019-03-12T07:54:19.000Z,28.1
2019-03-12T07:55:35.000Z,28.1
2019-03-12T07:57:35.000Z,28.1
2019-03-12T07:58:35.000Z,28.2
2019-03-12T08:00:35.000Z,28.1
2019-03-12T08:01:35.000Z,28.1
2019-03-12T08:02:35.000Z,28.2
2019-03-12T08:03:35.000Z,28.3
2019-03-12T08:05:35.000Z,28.4
2019-03-12T08:07:19.000Z,28.5
2019-03-12T08:08:35.000Z,28.5
2019-03-12T08:10:35.000Z,28.5
2019-03-12T08:11:35.000Z,28.5
2019-03-12T08:13:34.000Z,28.6
2019-03-12T08:14:35.000Z,28.7
2019-03-12T08:16:35.000Z,28.7
2019-03-12T08:17:35.000Z,28.7
2019-03-12T08:19:35.000Z,28.8
2019-03-12T08:20:35.000Z,28.8
2019-03-12T08:22:34.000Z,28.8
2019-03-12T08:23:35.000Z,28.8
2019-03-12T08:24:35.000Z,28.8
2019-03-12T08:26:35.000Z,28.9
2019-03-12T08:27:35.000Z,28.9
2019-03-12T08:29:19.000Z,28.9
2019-03-12T08:30:35.000Z,28.8
2019-03-12T08:32:20.000Z,28.9
2019-03-12T08:34:35.000Z,28.6
2019-03-12T08:35:35.000Z,28.6
2019-03-12T08:37:35.000Z,28.6
2019-03-12T08:38:35.000Z,28.6
2019-03-12T08:40:35.000Z,28.7
2019-03-12T08:42:19.000Z,28.7
2019-03-12T08:43:35.000Z,28.7
2019-03-12T08:44:35.000Z,28.8
2019-03-12T08:46:20.000Z,28.8
2019-03-12T08:47:34.000Z,28.7
2019-03-12T08:48:34.000Z,28.7
2019-03-12T08:50:19.000Z,28.8
2019-03-12T08:51:34.000Z,28.8
2019-03-12T08:53:34.000Z,28.9
2019-03-12T08:55:34.000Z,29
2019-03-12T08:56:34.000Z,29.1
2019-03-12T08:57:34.000Z,29.2
2019-03-12T08:59:34.000Z,29.3
2019-03-12T09:01:34.000Z,29.4
2019-03-12T09:02:34.000Z,29.4
2019-03-12T09:03:34.000Z,29.4
2019-03-12T09:05:34.000Z,29.5
2019-03-12T09:07:34.000Z,29.5
2019-03-12T09:09:19.000Z,29.6
2019-03-12T09:10:34.000Z,29.7
2019-03-12T09:12:34.000Z,29.8
2019-03-12T09:14:34.000Z,29.9
2019-03-12T09:16:34.000Z,30
2019-03-12T09:18:34.000Z,30
2019-03-12T09:19:34.000Z,30
2019-03-12T09:21:19.000Z,30.1
2019-03-12T09:22:34.000Z,30.1
2019-03-12T09:24:34.000Z,30.2
2019-03-12T09:26:34.000Z,30.3
2019-03-12T09:27:34.000Z,30.3
2019-03-12T09:28:34.000Z,30.3
2019-03-12T09:30:34.000Z,30.4
2019-03-12T09:31:34.000Z,30.4
2019-03-12T09:33:34.000Z,30.5
2019-03-12T09:35:34.000Z,30.4
2019-03-12T09:37:34.000Z,30.4
2019-03-12T09:38:34.000Z,30.4
2019-03-12T09:40:34.000Z,30.4
2019-03-12T09:42:34.000Z,30.4
2019-03-12T09:43:34.000Z,30.4
2019-03-12T09:44:34.000Z,30.4
2019-03-12T09:46:34.000Z,30.5
2019-03-12T09:48:34.000Z,30.5
2019-03-12T09:50:35.000Z,30.5
2019-03-12T09:51:35.000Z,30.4
2019-03-12T09:52:35.000Z,30.5
2019-03-12T09:54:20.000Z,30.5
2019-03-12T09:55:35.000Z,30.5
2019-03-12T09:57:35.000Z,30.5
2019-03-12T09:59:35.000Z,30.5
2019-03-12T10:00:35.000Z,30.5
2019-03-12T10:01:35.000Z,30.6
2019-03-12T10:03:35.000Z,30.7
2019-03-12T10:05:35.000Z,30.8
2019-03-12T10:06:35.000Z,30.8
2019-03-12T10:08:20.000Z,30.9
2019-03-12T10:09:35.000Z,30.8
2019-03-12T10:10:35.000Z,30.9
2019-03-12T10:12:35.000Z,30.9
2019-03-12T10:14:35.000Z,30.9
2019-03-12T10:16:35.000Z,30.9
2019-03-12T10:18:35.000Z,30.9
2019-03-12T10:20:35.000Z,30.9
2019-03-12T10:21:35.000Z,30.9
2019-03-12T10:23:35.000Z,31
2019-03-12T10:25:35.000Z,31
2019-03-12T10:27:35.000Z,30.9
2019-03-12T10:28:35.000Z,30.9
2019-03-12T10:30:35.000Z,30.9
2019-03-12T10:32:35.000Z,30.8
2019-03-12T10:34:20.000Z,30.7
2019-03-12T10:35:35.000Z,30.5
2019-03-12T10:36:35.000Z,30.4
2019-03-12T10:37:35.000Z,30.1
2019-03-12T10:38:35.000Z,29.8
2019-03-12T10:39:35.000Z,29.5
2019-03-12T10:40:35.000Z,29.2
2019-03-12T10:42:35.000Z,28.6
2019-03-12T10:43:35.000Z,28.3
2019-03-12T10:44:35.000Z,28.1
2019-03-12T10:46:35.000Z,28.1
2019-03-12T10:47:35.000Z,28.2
2019-03-12T10:48:35.000Z,28.4
2019-03-12T10:49:35.000Z,28.6
2019-03-12T10:51:35.000Z,28.9
2019-03-12T10:53:35.000Z,29.2
2019-03-12T10:55:34.000Z,29.4
2019-03-12T10:57:19.000Z,29.6
2019-03-12T10:58:34.000Z,29.7
2019-03-12T10:59:34.000Z,29.9
2019-03-12T11:01:34.000Z,30.4
2019-03-12T11:02:34.000Z,30.5
2019-03-12T11:04:34.000Z,30.7
2019-03-12T11:06:34.000Z,30.8
2019-03-12T11:08:34.000Z,30.9
2019-03-12T11:10:34.000Z,31
2019-03-12T11:12:34.000Z,31
2019-03-12T11:14:34.000Z,31
2019-03-12T11:15:34.000Z,31
2019-03-12T11:17:34.000Z,31.1
2019-03-12T11:19:34.000Z,30.8
2019-03-12T11:20:34.000Z,30.7
2019-03-12T11:22:34.000Z,30.6
2019-03-12T11:24:34.000Z,30.5
2019-03-12T11:26:34.000Z,30.3
2019-03-12T11:27:34.000Z,30.3
2019-03-12T11:29:19.000Z,30.2
2019-03-12T11:30:34.000Z,30.1
2019-03-12T11:32:34.000Z,29.9
2019-03-12T11:34:34.000Z,29.8
2019-03-12T11:36:19.000Z,29.6
2019-03-12T11:37:34.000Z,29.5
2019-03-12T11:39:34.000Z,29.3
2019-03-12T11:41:19.000Z,29.2
2019-03-12T11:42:19.000Z,29.1
2019-03-12T11:44:34.000Z,29.1
2019-03-12T11:46:34.000Z,29
2019-03-12T11:48:34.000Z,28.9
2019-03-12T11:50:19.000Z,28.9
2019-03-12T11:51:34.000Z,28.9
2019-03-12T11:53:19.000Z,28.9
2019-03-12T11:54:34.000Z,28.9
2019-03-12T11:55:34.000Z,28.9
2019-03-12T11:57:34.000Z,28.9
2019-03-12T11:59:35.000Z,28.9
2019-03-12T12:00:35.000Z,29
2019-03-12T12:02:35.000Z,29
2019-03-12T12:04:20.000Z,29
2019-03-12T12:05:35.000Z,28.8
2019-03-12T12:06:35.000Z,28.5
2019-03-12T12:08:35.000Z,27.8
2019-03-12T12:10:35.000Z,27
2019-03-12T12:12:20.000Z,26.4
2019-03-12T12:13:35.000Z,26
2019-03-12T12:14:35.000Z,25.8
2019-03-12T12:15:35.000Z,25.7
2019-03-12T12:17:35.000Z,25.6
2019-03-12T12:19:35.000Z,25.5
2019-03-12T12:21:35.000Z,25.2
2019-03-12T12:23:06.000Z,25
2019-03-12T12:26:06.000Z,24.8
2019-03-12T12:28:06.000Z,24.6
2019-03-12T12:29:06.000Z,24.6
2019-03-12T12:31:06.000Z,24.7
2019-03-12T12:32:06.000Z,24.8
2019-03-12T12:34:06.000Z,25
2019-03-12T12:35:06.000Z,25.1
2019-03-12T12:36:06.000Z,25.3
2019-03-12T12:38:06.000Z,25.6
2019-03-12T12:40:06.000Z,25.8
2019-03-12T12:41:06.000Z,25.9
2019-03-12T12:42:06.000Z,26.1
2019-03-12T12:43:06.000Z,26.2
2019-03-12T12:45:06.000Z,26.5
2019-03-12T12:46:06.000Z,26.6
2019-03-12T12:48:06.000Z,26.7
2019-03-12T12:50:06.000Z,26.7
2019-03-12T12:52:06.000Z,26.7
2019-03-12T12:53:06.000Z,26.7
2019-03-12T12:55:06.000Z,26.8
2019-03-12T12:56:06.000Z,26.8
2019-03-12T12:58:06.000Z,26.9
2019-03-12T13:00:06.000Z,26.9
2019-03-12T13:01:06.000Z,27
2019-03-12T13:02:06.000Z,27.1
2019-03-12T13:04:06.000Z,27.2
2019-03-12T13:06:06.000Z,27.2
2019-03-12T13:07:06.000Z,27.3
2019-03-12T13:08:06.000Z,27.3
2019-03-12T13:09:06.000Z,27.4
2019-03-12T13:11:06.000Z,27.5
2019-03-12T13:12:06.000Z,27.5
2019-03-12T13:14:06.000Z,27.5
2019-03-12T13:15:06.000Z,27.5
2019-03-12T13:16:06.000Z,27.6
2019-03-12T13:18:06.000Z,27.7
2019-03-12T13:19:51.000Z,27.6
2019-03-12T13:21:06.000Z,27.5
2019-03-12T13:22:06.000Z,27.5
2019-03-12T13:23:06.000Z,27.6
2019-03-12T13:25:06.000Z,27.7
2019-03-12T13:26:06.000Z,27.7
2019-03-12T13:28:06.000Z,27.7
2019-03-12T13:29:06.000Z,27.5
2019-03-12T13:31:06.000Z,27
2019-03-12T13:33:06.000Z,26.5
2019-03-12T13:34:06.000Z,26.3
2019-03-12T13:36:06.000Z,26
2019-03-12T13:38:06.000Z,25.7
2019-03-12T13:40:06.000Z,25.3
2019-03-12T13:41:51.000Z,25.1
2019-03-12T13:43:06.000Z,25
2019-03-12T13:45:06.000Z,24.8
2019-03-12T13:47:06.000Z,24.8
2019-03-12T13:48:50.000Z,25
2019-03-12T13:50:06.000Z,25.2
2019-03-12T13:51:50.000Z,25.4
2019-03-12T13:52:51.000Z,25.4
2019-03-12T13:54:06.000Z,25.4
2019-03-12T13:55:50.000Z,25.4
2019-03-12T13:57:06.000Z,25.5
2019-03-12T13:59:06.000Z,25.7
2019-03-12T14:01:06.000Z,25.9
2019-03-12T14:02:06.000Z,26
2019-03-12T14:03:06.000Z,26.2
2019-03-12T14:05:06.000Z,26.5
2019-03-12T14:06:06.000Z,26.6
2019-03-12T14:08:06.000Z,26.8
2019-03-12T14:10:06.000Z,26.9
2019-03-12T14:12:06.000Z,26.9
2019-03-12T14:13:06.000Z,26.9
2019-03-12T14:14:06.000Z,27
2019-03-12T14:15:06.000Z,27.1
2019-03-12T14:17:06.000Z,27.2
2019-03-12T14:19:06.000Z,27
2019-03-12T14:21:06.000Z,27
2019-03-12T14:22:50.000Z,27.1
2019-03-12T14:24:06.000Z,27.1
2019-03-12T14:25:06.000Z,27.1
2019-03-12T14:26:06.000Z,27.2
2019-03-12T14:28:06.000Z,27.3
2019-03-12T14:30:06.000Z,27.2
2019-03-12T14:31:06.000Z,27.2
2019-03-12T14:33:06.000Z,27.2
2019-03-12T14:34:06.000Z,27.2
2019-03-12T14:35:51.000Z,27.3
2019-03-12T14:37:06.000Z,27.3
2019-03-12T14:38:06.000Z,27.3
2019-03-12T14:39:06.000Z,27.3
2019-03-12T14:40:06.000Z,27.4
2019-03-12T14:42:06.000Z,27.5
2019-03-12T14:44:06.000Z,27.5
2019-03-12T14:45:06.000Z,27.6
2019-03-12T14:46:51.000Z,27.6
2019-03-12T14:48:06.000Z,27.6
2019-03-12T14:50:06.000Z,27.5
2019-03-12T14:52:06.000Z,27.6
2019-03-12T14:54:06.000Z,27.6
2019-03-12T14:55:06.000Z,27.7
2019-03-12T14:57:06.000Z,27.8
2019-03-12T14:59:06.000Z,27.7
2019-03-12T15:01:06.000Z,27.7
2019-03-12T15:03:06.000Z,27.7
2019-03-12T15:05:06.000Z,27.7
2019-03-12T15:07:06.000Z,27.7
2019-03-12T15:08:06.000Z,27.8
2019-03-12T15:09:06.000Z,27.8
2019-03-12T15:11:06.000Z,28
2019-03-12T15:13:06.000Z,28
2019-03-12T15:15:06.000Z,28
2019-03-12T15:16:51.000Z,28
2019-03-12T15:18:06.000Z,28
2019-03-12T15:20:06.000Z,27.9
2019-03-12T15:21:06.000Z,27.9
2019-03-12T15:23:06.000Z,28
2019-03-12T15:25:06.000Z,28
2019-03-12T15:26:51.000Z,28
2019-03-12T15:28:06.000Z,28
2019-03-12T15:29:06.000Z,28
2019-03-12T15:31:06.000Z,28
2019-03-12T15:33:06.000Z,28
2019-03-12T15:34:06.000Z,28
2019-03-12T15:35:06.000Z,28
2019-03-12T15:36:50.000Z,28.1
2019-03-12T15:38:06.000Z,28.1
2019-03-12T15:39:06.000Z,28.1
2019-03-12T15:40:06.000Z,28.1
2019-03-12T15:42:06.000Z,28.1
2019-03-12T15:43:06.000Z,28.1
2019-03-12T15:44:06.000Z,28.1
2019-03-12T15:45:50.000Z,28.1
2019-03-12T15:47:06.000Z,28.1
2019-03-12T15:48:50.000Z,28
2019-03-12T15:50:06.000Z,27.9
2019-03-12T15:52:06.000Z,27.7
2019-03-12T15:54:06.000Z,27.6
2019-03-12T15:56:06.000Z,27.7
2019-03-12T15:58:06.000Z,27.6
2019-03-12T15:59:06.000Z,27.6
2019-03-12T16:01:06.000Z,27.6
2019-03-12T16:02:50.000Z,27.7
2019-03-12T16:04:06.000Z,27.6
2019-03-12T16:06:06.000Z,27.6
2019-03-12T16:08:06.000Z,27.6
2019-03-12T16:09:06.000Z,27.5
2019-03-12T16:10:06.000Z,27.6
2019-03-12T16:12:06.000Z,27.6
2019-03-12T16:14:06.000Z,27.5
2019-03-12T16:15:06.000Z,27.5
2019-03-12T16:17:06.000Z,27.5
2019-03-12T16:18:06.000Z,27.5
2019-03-12T16:19:06.000Z,27.6
2019-03-12T16:21:06.000Z,27.6
2019-03-12T16:22:50.000Z,27.6
2019-03-12T16:23:51.000Z,27.6
2019-03-12T16:25:06.000Z,27.5
2019-03-12T16:26:06.000Z,27.4
2019-03-12T16:28:06.000Z,27.5
2019-03-12T16:30:06.000Z,27.5
2019-03-12T16:31:50.000Z,27.5
2019-03-12T16:33:06.000Z,27.4
2019-03-12T16:35:06.000Z,27.4
2019-03-12T16:36:06.000Z,27.4
2019-03-12T16:37:06.000Z,27.4
2019-03-12T16:39:05.000Z,27.5
2019-03-12T16:41:05.000Z,27.5
2019-03-12T16:42:05.000Z,27.5
2019-03-12T16:44:05.000Z,27.5
2019-03-12T16:46:05.000Z,27.5
2019-03-12T16:47:05.000Z,27.5
2019-03-12T16:49:05.000Z,27.5
2019-03-12T16:50:05.000Z,27.5
2019-03-12T16:52:05.000Z,27.6
2019-03-12T16:53:05.000Z,27.6
2019-03-12T16:55:05.000Z,27.6
2019-03-12T16:57:05.000Z,27.6
2019-03-12T16:58:05.000Z,27.6
2019-03-12T17:00:05.000Z,27.5
2019-03-12T17:01:05.000Z,27.5
2019-03-12T17:02:05.000Z,27.4
2019-03-12T17:03:05.000Z,27.5
2019-03-12T17:05:05.000Z,27.5
2019-03-12T17:06:05.000Z,27.6
2019-03-12T17:07:05.000Z,27.6
2019-03-12T17:09:05.000Z,27.6
2019-03-12T17:10:51.000Z,27.6
2019-03-12T17:13:05.000Z,27.3
2019-03-12T17:14:05.000Z,27.2
2019-03-12T17:15:05.000Z,27.3
2019-03-12T17:17:05.000Z,27.2
2019-03-12T17:18:05.000Z,27.2
2019-03-12T17:19:05.000Z,27.2
2019-03-12T17:20:05.000Z,27.3
2019-03-12T17:22:05.000Z,27.4
2019-03-12T17:24:05.000Z,27.4
2019-03-12T17:26:05.000Z,27.3
2019-03-12T17:27:05.000Z,27.3
2019-03-12T17:29:05.000Z,27.3
2019-03-12T17:30:05.000Z,27.3
2019-03-12T17:32:05.000Z,27.3
2019-03-12T17:34:05.000Z,27.3
2019-03-12T17:35:50.000Z,27.2
2019-03-12T17:37:05.000Z,27.2
2019-03-12T17:39:05.000Z,27.1
2019-03-12T17:41:05.000Z,27.1
2019-03-12T17:43:06.000Z,27.1
2019-03-12T17:44:06.000Z,27.1
2019-03-12T17:45:06.000Z,27.1
2019-03-12T17:46:06.000Z,27.1
2019-03-12T17:48:06.000Z,27.2
2019-03-12T17:49:06.000Z,27.3
2019-03-12T17:50:06.000Z,27.3
2019-03-12T17:52:06.000Z,27.4
2019-03-12T17:53:06.000Z,27.4
2019-03-12T17:55:06.000Z,27.4
2019-03-12T17:57:06.000Z,27.3
2019-03-12T17:59:06.000Z,27.2
2019-03-12T18:01:06.000Z,27.1
2019-03-12T18:03:06.000Z,27
2019-03-12T18:05:06.000Z,27
2019-03-12T18:06:06.000Z,27
2019-03-12T18:07:06.000Z,27.1
2019-03-12T18:09:06.000Z,27.3
2019-03-12T18:11:06.000Z,27.2
2019-03-12T18:12:50.000Z,27.1
2019-03-12T18:14:06.000Z,27.1
2019-03-12T18:16:06.000Z,27.1
2019-03-12T18:17:06.000Z,27.1
2019-03-12T18:19:06.000Z,27.2
2019-03-12T18:20:06.000Z,27.3
2019-03-12T18:22:06.000Z,27.4
2019-03-12T18:24:06.000Z,27.3
2019-03-12T18:25:06.000Z,27.3
2019-03-12T18:27:06.000Z,27.3
2019-03-12T18:29:06.000Z,27.2
2019-03-12T18:31:06.000Z,27.2
2019-03-12T18:32:06.000Z,27.2
2019-03-12T18:34:06.000Z,27.3
2019-03-12T18:36:06.000Z,27.3
2019-03-12T18:38:06.000Z,27.3
2019-03-12T18:40:06.000Z,27.3
2019-03-12T18:42:06.000Z,27.2
2019-03-12T18:43:06.000Z,27.2
2019-03-12T18:44:06.000Z,27.2
2019-03-12T18:46:06.000Z,27.3
2019-03-12T18:47:06.000Z,27.3
2019-03-12T18:48:06.000Z,27.4
2019-03-12T18:49:51.000Z,27.4
2019-03-12T18:51:06.000Z,27.3
2019-03-12T18:53:06.000Z,27.3
2019-03-12T18:54:06.000Z,27.2
2019-03-12T18:55:51.000Z,27.2
2019-03-12T18:57:06.000Z,27.2
2019-03-12T18:58:06.000Z,27.2
2019-03-12T18:59:06.000Z,27.3
2019-03-12T19:00:06.000Z,27.3
2019-03-12T19:01:51.000Z,27.4
2019-03-12T19:03:06.000Z,27.4
2019-03-12T19:05:06.000Z,27.4
2019-03-12T19:06:06.000Z,27.4
2019-03-12T19:08:06.000Z,27.3
2019-03-12T19:10:06.000Z,27.3
2019-03-12T19:12:06.000Z,27.1
2019-03-12T19:13:06.000Z,27.1
2019-03-12T19:14:06.000Z,27.2
2019-03-12T19:16:06.000Z,27.2
2019-03-12T19:17:06.000Z,27.3
2019-03-12T19:19:06.000Z,27.3
2019-03-12T19:20:06.000Z,27.4
2019-03-12T19:22:06.000Z,27.4
2019-03-12T19:23:06.000Z,27.3
2019-03-12T19:24:06.000Z,27.3
2019-03-12T19:25:06.000Z,27.4
2019-03-12T19:27:06.000Z,27.4
2019-03-12T19:29:06.000Z,27.3
2019-03-12T19:30:06.000Z,27.3
2019-03-12T19:32:06.000Z,27.3
2019-03-12T19:34:06.000Z,27.2
2019-03-12T19:35:06.000Z,27.2
2019-03-12T19:36:06.000Z,27.2
2019-03-12T19:38:06.000Z,27.3
2019-03-12T19:39:06.000Z,27.3
2019-03-12T19:40:06.000Z,27.3
2019-03-12T19:41:06.000Z,27.4
2019-03-12T19:43:06.000Z,27.4
2019-03-12T19:45:06.000Z,27.3
2019-03-12T19:46:06.000Z,27.3
2019-03-12T19:48:06.000Z,27.3
2019-03-12T19:50:06.000Z,27.2
2019-03-12T19:51:06.000Z,27.3
2019-03-12T19:52:06.000Z,27.3
2019-03-12T19:53:51.000Z,27.4
2019-03-12T19:55:06.000Z,27.3
2019-03-12T19:56:06.000Z,27.3
2019-03-12T19:58:06.000Z,27.3
2019-03-12T20:00:06.000Z,27.2
2019-03-12T20:02:06.000Z,27.1
2019-03-12T20:03:06.000Z,27
2019-03-12T20:05:06.000Z,26.8
2019-03-12T20:06:06.000Z,26.8
2019-03-12T20:08:06.000Z,26.8
2019-03-12T20:10:06.000Z,26.8
2019-03-12T20:12:06.000Z,26.8
2019-03-12T20:13:06.000Z,26.8
2019-03-12T20:14:06.000Z,26.9
2019-03-12T20:15:06.000Z,27
2019-03-12T20:16:06.000Z,27
2019-03-12T20:18:06.000Z,27
2019-03-12T20:19:06.000Z,27
2019-03-12T20:21:06.000Z,27
2019-03-12T20:22:06.000Z,27
2019-03-12T20:24:06.000Z,27.1
2019-03-12T20:26:06.000Z,27.1
2019-03-12T20:27:06.000Z,27.1
2019-03-12T20:29:06.000Z,27.1
2019-03-12T20:30:06.000Z,27.2
2019-03-12T20:32:06.000Z,27.2
2019-03-12T20:33:06.000Z,27.1
2019-03-12T20:34:06.000Z,27.2
2019-03-12T20:35:51.000Z,27.2
2019-03-12T20:37:06.000Z,27.1
2019-03-12T20:38:06.000Z,27.1
2019-03-12T20:40:06.000Z,27.2
2019-03-12T20:42:06.000Z,27.1